Time;durP1;ratioP1;P1;durP2;ratioP2;P2;SDS_P1;SDS_P2;PMS_P1;PMS_P2;Temp;Humidity;BMP_temperature;BMP_pressure;BME280_temperature;BME280_humidity;BME280_pressure;Samples;Min_cycle;Max_cycle;Signal;HPM_P1;HPM_P2
2022/05/03 00:02:43;;;;;;;4.40;3.73;;;10.80;99.90;;;;;;5070194;28;20214;-53
2022/05/03 00:05:27;;;;;;;3.87;3.40;;;10.80;1.00;;;;;;5067182;28;20206;-54
2022/05/03 00:07:54;;;;;;;3.43;3.13;;;10.70;1.00;;;;;;5072709;28;20260;-55
2022/05/03 00:10:45;;;;;;;4.90;3.80;;;10.60;1.00;;;;;;5069914;28;20285;-54
2022/05/03 00:13:22;;;;;;;3.97;2.93;;;10.60;1.00;;;;;;5068298;28;20231;-55
2022/05/03 00:15:51;;;;;;;4.40;3.77;;;10.50;1.00;;;;;;5064245;28;20241;-54
2022/05/03 00:18:18;;;;;;;5.63;3.70;;;10.60;1.00;;;;;;5068764;28;20206;-55
2022/05/03 00:20:47;;;;;;;5.27;3.30;;;10.60;1.00;;;;;;5065164;28;20319;-54
2022/05/03 00:23:15;;;;;;;3.93;3.07;;;10.50;1.00;;;;;;5068632;28;20226;-55
2022/05/03 00:25:43;;;;;;;4.17;3.20;;;10.40;1.00;;;;;;5069719;28;20294;-54
2022/05/03 00:28:10;;;;;;;3.70;3.10;;;10.40;1.00;;;;;;5049879;28;20222;-58
2022/05/03 00:30:38;;;;;;;5.03;3.07;;;10.40;1.00;;;;;;5068425;28;20202;-54
2022/05/03 00:33:07;;;;;;;3.80;2.97;;;10.40;1.00;;;;;;5068109;28;20236;-54
2022/05/03 00:35:34;;;;;;;4.73;3.43;;;10.50;99.90;;;;;;5064291;28;20199;-56
2022/05/03 00:38:01;;;;;;;4.70;3.10;;;10.40;99.90;;;;;;5069198;28;20263;-55
2022/05/03 00:40:32;;;;;;;3.47;3.03;;;10.40;99.90;;;;;;5051346;28;20211;-54
2022/05/03 00:43:16;;;;;;;4.90;3.20;;;10.30;99.90;;;;;;5067632;28;20244;-55
2022/05/03 00:45:53;;;;;;;4.77;3.50;;;10.40;99.90;;;;;;5068684;28;20202;-55
2022/05/03 00:48:29;;;;;;;4.83;3.03;;;10.40;60.40;;;;;;5066814;28;20202;-55
2022/05/03 00:51:16;;;;;;;5.40;2.87;;;10.40;99.90;;;;;;5055371;28;20210;-56
2022/05/03 00:54:03;;;;;;;4.83;3.10;;;10.40;1.00;;;;;;5062113;28;20642;-55
2022/05/03 00:56:49;;;;;;;4.07;3.07;;;10.50;1.00;;;;;;5047915;28;20684;-55
2022/05/03 00:59:43;;;;;;;4.50;3.00;;;10.50;1.00;;;;;;5067448;28;20514;-55
2022/05/03 01:02:13;;;;;;;4.23;3.13;;;10.50;1.00;;;;;;5071563;28;20673;-54
2022/05/03 01:05:06;;;;;;;3.53;2.97;;;10.60;1.00;;;;;;5066338;28;20214;-55
2022/05/03 01:07:35;;;;;;;3.67;3.10;;;10.40;1.00;;;;;;5048479;28;20265;-55
2022/05/03 01:10:16;;;;;;;4.57;2.77;;;10.30;1.00;;;;;;5072421;28;20208;-55
2022/05/03 01:12:43;;;;;;;5.10;3.10;;;10.40;1.00;;;;;;5066308;28;20219;-55
2022/05/03 01:15:18;;;;;;;6.23;3.37;;;10.30;1.00;;;;;;5067684;28;20285;-54
2022/05/03 01:17:48;;;;;;;3.67;3.00;;;10.20;1.00;;;;;;5064008;28;20249;-53
2022/05/03 01:20:37;;;;;;;5.87;3.60;;;10.20;21.80;;;;;;5065072;28;20657;-54
2022/05/03 01:23:40;;;;;;;3.60;3.30;;;10.10;92.20;;;;;;5072685;28;20375;-54
2022/05/03 01:26:16;;;;;;;3.83;3.27;;;10.30;99.90;;;;;;5072454;28;20237;-54
2022/05/03 01:28:49;;;;;;;5.90;3.73;;;10.30;1.00;;;;;;5070665;28;20244;-54
2022/05/03 01:31:17;;;;;;;5.53;3.17;;;10.20;99.90;;;;;;5070007;28;20211;-56
2022/05/03 01:33:45;;;;;;;3.90;3.17;;;10.20;8.30;;;;;;5070544;28;20936;-54
2022/05/03 01:36:33;;;;;;;5.70;3.30;;;10.20;15.10;;;;;;5071046;28;20868;-54
2022/05/03 01:39:02;;;;;;;6.03;3.90;;;10.20;99.90;;;;;;5070986;28;20206;-56
2022/05/03 01:41:42;;;;;;;4.73;3.57;;;10.10;99.90;;;;;;5073134;28;20203;-57
2022/05/03 01:44:30;;;;;;;5.27;3.20;;;10.20;99.90;;;;;;5071861;28;20294;-55
2022/05/03 01:47:07;;;;;;;4.07;3.47;;;10.20;1.00;;;;;;5033954;28;20560;-54
2022/05/03 01:53:17;;;;;;;5.23;2.90;;;10.20;1.00;;;;;;5060009;28;20199;-55
2022/05/03 01:56:03;;;;;;;4.67;3.00;;;10.20;1.00;;;;;;5035235;28;20241;-54
2022/05/03 01:58:39;;;;;;;5.07;3.07;;;10.10;1.00;;;;;;5058685;28;20205;-55
2022/05/03 02:01:17;;;;;;;3.27;2.97;;;10.10;1.00;;;;;;5072537;28;20220;-54
2022/05/03 02:03:52;;;;;;;4.50;3.00;;;10.10;1.00;;;;;;5065329;28;20701;-56
2022/05/03 02:06:43;;;;;;;4.13;3.40;;;10.20;1.00;;;;;;5070343;28;20664;-55
2022/05/03 02:09:10;;;;;;;6.97;3.23;;;10.20;1.00;;;;;;5069055;28;20211;-55
2022/05/03 02:12:04;;;;;;;3.50;2.90;;;10.20;1.00;;;;;;5067391;28;20249;-54
2022/05/03 02:14:46;;;;;;;4.97;3.20;;;10.10;1.00;;;;;;5047036;28;20650;-55
2022/05/03 02:17:51;;;;;;;3.77;2.70;;;10.20;1.00;;;;;;5062572;28;20243;-55
2022/05/03 02:20:52;;;;;;;4.20;2.97;;;10.40;99.90;;;;;;5069337;28;20289;-57
2022/05/03 02:23:35;;;;;;;3.20;2.90;;;10.30;99.90;;;;;;5071800;28;20234;-54
2022/05/03 02:26:24;;;;;;;3.43;3.07;;;10.10;1.00;;;;;;5069138;28;20257;-54
2022/05/03 02:29:10;;;;;;;4.17;3.10;;;10.20;99.90;;;;;;5070861;28;20246;-54
2022/05/03 02:31:37;;;;;;;3.40;2.53;;;10.20;99.90;;;;;;5047852;28;20202;-55
2022/05/03 02:34:14;;;;;;;3.60;2.90;;;10.10;1.00;;;;;;5069225;28;20649;-56
2022/05/03 02:36:58;;;;;;;4.23;3.07;;;10.00;99.90;;;;;;5070762;28;20263;-57
2022/05/03 02:39:30;;;;;;;3.40;3.07;;;10.10;99.90;;;;;;5034480;28;20208;-55
2022/05/03 02:41:59;;;;;;;3.60;2.70;;;10.10;99.90;;;;;;5065690;28;20262;-54
2022/05/03 02:44:29;;;;;;;5.20;3.10;;;9.90;99.90;;;;;;5042229;28;20282;-54
2022/05/03 02:47:04;;;;;;;3.00;2.70;;;9.90;1.00;;;;;;5070797;28;20247;-54
2022/05/03 02:49:59;;;;;;;6.13;3.20;;;9.90;1.00;;;;;;5068536;28;20284;-54
2022/05/03 02:53:07;;;;;;;4.10;3.33;;;9.90;1.00;;;;;;5068411;28;20274;-54
2022/05/03 02:55:49;;;;;;;4.20;3.00;;;9.90;1.00;;;;;;5071116;28;20534;-54
2022/05/03 02:58:42;;;;;;;4.27;3.60;;;9.90;1.00;;;;;;5070554;28;20215;-54
2022/05/03 03:04:23;;;;;;;4.90;3.57;;;9.90;1.00;;;;;;5068623;28;20581;-56
2022/05/03 03:06:54;;;;;;;4.00;2.93;;;9.90;1.00;;;;;;5070151;28;20222;-55
2022/05/03 03:09:29;;;;;;;4.60;3.70;;;10.00;1.00;;;;;;5070434;28;20525;-54
2022/05/03 03:12:03;;;;;;;3.67;3.20;;;9.90;1.00;;;;;;5071200;28;20646;-54
2022/05/03 03:14:34;;;;;;;3.50;2.90;;;9.80;1.00;;;;;;5069979;28;20210;-54
2022/05/03 03:17:09;;;;;;;4.33;3.63;;;9.80;1.00;;;;;;5070820;28;20218;-56
2022/05/03 03:19:46;;;;;;;5.30;3.70;;;9.80;1.00;;;;;;5064962;28;20205;-55
2022/05/03 03:22:15;;;;;;;4.63;3.60;;;9.70;1.00;;;;;;5064729;28;20287;-55
2022/05/03 03:24:43;;;;;;;3.97;3.23;;;9.60;1.00;;;;;;5067191;28;20206;-55
2022/05/03 03:27:11;;;;;;;5.00;3.80;;;9.60;99.90;;;;;;5069258;28;20583;-56
2022/05/03 03:29:39;;;;;;;5.13;3.63;;;9.70;99.90;;;;;;5068424;28;20230;-53
2022/05/03 03:32:08;;;;;;;3.93;3.13;;;9.80;1.00;;;;;;5070438;28;20279;-56
2022/05/03 03:34:41;;;;;;;4.30;3.57;;;9.80;1.00;;;;;;5067708;28;20199;-55
2022/05/03 03:37:09;;;;;;;5.63;3.93;;;9.70;1.00;;;;;;5058627;28;20544;-55
2022/05/03 03:39:36;;;;;;;4.40;3.53;;;9.50;99.90;;;;;;5069725;28;20248;-56
2022/05/03 03:42:05;;;;;;;5.47;3.97;;;9.60;99.90;;;;;;5063379;28;20253;-56
2022/05/03 03:44:33;;;;;;;4.93;3.70;;;9.50;99.90;;;;;;5069850;28;20662;-55
2022/05/03 03:47:01;;;;;;;5.77;3.87;;;9.50;99.90;;;;;;5069796;28;20305;-55
2022/05/03 03:49:29;;;;;;;5.67;3.77;;;9.50;99.90;;;;;;5061528;28;20631;-54
2022/05/03 03:51:58;;;;;;;4.67;3.67;;;9.50;1.00;;;;;;5065437;28;20651;-55
2022/05/03 03:54:26;;;;;;;5.27;4.00;;;9.60;1.00;;;;;;5069773;28;20308;-58
2022/05/03 03:56:54;;;;;;;4.97;3.83;;;9.50;1.00;;;;;;5070178;28;20520;-55
2022/05/03 03:59:22;;;;;;;5.30;4.17;;;9.40;1.00;;;;;;5069523;28;20261;-56
2022/05/03 04:01:49;;;;;;;4.37;3.40;;;9.30;1.00;;;;;;5069914;28;20206;-55
2022/05/03 04:04:17;;;;;;;4.70;3.93;;;9.60;1.00;;;;;;5066982;28;20637;-57
2022/05/03 04:06:44;;;;;;;4.93;3.70;;;9.60;1.00;;;;;;5068028;28;20233;-54
2022/05/03 04:09:11;;;;;;;4.80;3.97;;;9.60;1.00;;;;;;5072485;28;20692;-54
2022/05/03 04:11:45;;;;;;;6.53;3.93;;;9.50;1.00;;;;;;5069923;28;20645;-56
2022/05/03 04:14:14;;;;;;;4.50;3.70;;;9.40;1.00;;;;;;5069443;28;20680;-55
2022/05/03 04:16:41;;;;;;;6.50;4.43;;;9.40;1.00;;;;;;5066433;28;20248;-54
2022/05/03 04:19:11;;;;;;;3.87;3.47;;;9.30;1.00;;;;;;5060357;28;20653;-55
2022/05/03 04:21:38;;;;;;;5.43;4.23;;;9.30;9.20;;;;;;5069194;28;20221;-56
2022/05/03 04:24:06;;;;;;;7.13;4.30;;;9.20;99.90;;;;;;5067799;28;20687;-55
2022/05/03 04:26:33;;;;;;;6.40;3.97;;;9.20;1.00;;;;;;5063364;28;20220;-55
2022/05/03 04:29:02;;;;;;;4.70;4.03;;;9.20;1.00;;;;;;5066012;28;20682;-56
2022/05/03 04:31:30;;;;;;;6.43;3.87;;;9.10;1.00;;;;;;5069501;28;20704;-57
2022/05/03 04:33:57;;;;;;;5.50;4.43;;;9.20;1.00;;;;;;5067059;28;20532;-56
2022/05/03 04:36:27;;;;;;;6.57;4.90;;;9.20;1.00;;;;;;5068056;28;20653;-54
2022/05/03 04:38:54;;;;;;;5.60;4.50;;;9.10;1.00;;;;;;5043580;28;20701;-55
2022/05/03 04:41:21;;;;;;;4.70;3.70;;;9.10;1.00;;;;;;5069615;28;20610;-56
2022/05/03 04:43:48;;;;;;;5.40;4.17;;;9.10;1.00;;;;;;5061514;28;20244;-55
2022/05/03 04:46:15;;;;;;;9.40;4.07;;;9.10;99.90;;;;;;5069574;28;20218;-55
2022/05/03 04:48:43;;;;;;;4.47;4.00;;;9.20;1.00;;;;;;5066851;28;20575;-56
2022/05/03 04:51:25;;;;;;;5.30;4.47;;;9.10;1.00;;;;;;5060303;28;20611;-55
2022/05/03 04:53:52;;;;;;;5.03;3.97;;;9.20;1.00;;;;;;5067687;28;20250;-54
2022/05/03 04:56:24;;;;;;;5.70;4.40;;;9.20;1.00;;;;;;5050267;28;20233;-54
2022/05/03 04:58:55;;;;;;;6.87;4.77;;;9.30;1.00;;;;;;5069015;28;20663;-56
2022/05/03 05:01:23;;;;;;;6.20;4.17;;;9.30;1.00;;;;;;5055771;28;20207;-55
2022/05/03 05:03:50;;;;;;;6.00;5.00;;;9.30;1.00;;;;;;5066323;28;20715;-54
2022/05/03 05:06:19;;;;;;;5.73;4.33;;;9.30;1.00;;;;;;5063019;28;20242;-55
2022/05/03 05:08:46;;;;;;;5.83;4.23;;;9.30;1.00;;;;;;5059331;28;20673;-54
2022/05/03 05:11:13;;;;;;;8.13;4.23;;;9.40;1.00;;;;;;5065929;28;20659;-56
2022/05/03 05:13:40;;;;;;;6.93;4.80;;;9.50;1.00;;;;;;5068317;28;20555;-56
2022/05/03 05:16:08;;;;;;;5.27;4.20;;;9.60;1.00;;;;;;5067499;28;20673;-55
2022/05/03 05:18:35;;;;;;;5.77;4.07;;;9.70;1.00;;;;;;5066197;28;20218;-55
2022/05/03 05:21:02;;;;;;;6.67;4.23;;;9.80;99.90;;;;;;5067147;28;20543;-54
2022/05/03 05:23:29;;;;;;;5.93;4.23;;;9.70;1.00;;;;;;5068951;28;20307;-57
2022/05/03 05:25:56;;;;;;;6.13;4.63;;;9.80;91.30;;;;;;5064769;28;20288;-55
2022/05/03 05:28:24;;;;;;;6.67;4.90;;;9.70;99.90;;;;;;5068525;28;20284;-55
2022/05/03 05:30:54;;;;;;;6.43;4.10;;;9.60;99.90;;;;;;5067230;28;20598;-56
2022/05/03 05:33:22;;;;;;;5.30;4.20;;;9.50;1.00;;;;;;5067436;28;20201;-55
2022/05/03 05:35:50;;;;;;;6.33;4.40;;;9.50;99.90;;;;;;5066858;28;20208;-55
2022/05/03 05:38:18;;;;;;;5.03;3.87;;;9.50;1.00;;;;;;5067949;28;20749;-54
2022/05/03 05:40:46;;;;;;;4.87;4.10;;;9.60;99.90;;;;;;5069073;28;20260;-55
2022/05/03 05:43:16;;;;;;;8.57;4.47;;;9.80;1.00;;;;;;5043935;28;20717;-55
2022/05/03 05:45:44;;;;;;;6.20;4.00;;;9.90;1.00;;;;;;5069872;28;20246;-54
2022/05/03 05:48:15;;;;;;;7.00;3.90;;;10.00;1.00;;;;;;5071296;28;20322;-56
2022/05/03 05:50:42;;;;;;;6.30;4.00;;;9.90;99.90;;;;;;5039768;28;20210;-55
2022/05/03 05:55:54;;;;;;;4.73;3.50;;;9.90;1.00;;;;;;5065886;28;20203;-55
2022/05/03 05:58:21;;;;;;;4.33;3.47;;;10.00;27.00;;;;;;5071026;28;20293;-55
2022/05/03 06:00:48;;;;;;;5.00;3.57;;;10.10;1.00;;;;;;5066441;28;20637;-56
2022/05/03 06:03:16;;;;;;;4.53;3.70;;;10.10;1.00;;;;;;5069499;28;20249;-54
2022/05/03 06:05:43;;;;;;;3.77;3.37;;;10.20;1.00;;;;;;5068931;28;20299;-55
2022/05/03 06:08:10;;;;;;;5.53;3.83;;;10.20;1.00;;;;;;5071107;28;20214;-55
2022/05/03 06:10:38;;;;;;;5.47;4.03;;;10.40;1.00;;;;;;5069265;28;20687;-57
2022/05/03 06:13:05;;;;;;;7.10;3.60;;;10.40;1.00;;;;;;5067793;28;20206;-54
2022/05/03 06:15:32;;;;;;;6.13;3.10;;;10.60;1.00;;;;;;5071926;28;20212;-53
2022/05/03 06:17:59;;;;;;;5.20;3.13;;;10.70;1.00;;;;;;5052120;28;20254;-54
2022/05/03 06:20:26;;;;;;;5.27;2.73;;;10.70;1.00;;;;;;5066839;28;21366;-54
2022/05/03 06:22:53;;;;;;;3.90;2.90;;;10.60;1.00;;;;;;5067238;28;20230;-54
2022/05/03 06:25:20;;;;;;;4.07;2.90;;;10.50;1.00;;;;;;5071641;28;20236;-54
2022/05/03 06:27:47;;;;;;;4.57;2.80;;;10.70;1.00;;;;;;5068489;28;20227;-55
2022/05/03 06:30:14;;;;;;;4.60;2.60;;;10.90;1.00;;;;;;5065229;28;20582;-54
2022/05/03 06:32:43;;;;;;;6.20;2.90;;;11.00;1.00;;;;;;5067901;28;20224;-55
2022/05/03 06:35:11;;;;;;;4.40;2.60;;;11.00;1.00;;;;;;5068347;28;20275;-54
2022/05/03 06:37:42;;;;;;;3.33;2.60;;;11.10;1.00;;;;;;5070776;28;20260;-55
2022/05/03 06:40:10;;;;;;;3.30;2.40;;;11.50;1.00;;;;;;5067271;28;20201;-54
2022/05/03 06:42:38;;;;;;;7.20;2.27;;;11.60;1.00;;;;;;5061851;28;20225;-55
2022/05/03 06:45:06;;;;;;;4.77;3.00;;;11.70;1.00;;;;;;5068066;28;20244;-54
2022/05/03 06:47:33;;;;;;;3.17;2.07;;;12.10;1.00;;;;;;5071583;28;20621;-54
2022/05/03 06:50:01;;;;;;;2.83;2.53;;;12.20;1.00;;;;;;5063759;28;20640;-54
2022/05/03 06:52:28;;;;;;;8.10;2.67;;;12.50;1.00;;;;;;5061587;28;20196;-53
2022/05/03 06:54:55;;;;;;;3.17;2.23;;;12.90;1.00;;;;;;5065731;28;20193;-55
2022/05/03 06:57:21;;;;;;;4.27;2.90;;;13.10;1.00;;;;;;5068856;28;20207;-54
2022/05/03 06:59:49;;;;;;;3.33;2.83;;;12.80;1.00;;;;;;5062413;28;20476;-54
2022/05/03 07:02:16;;;;;;;4.40;2.60;;;12.60;1.00;;;;;;5063891;28;20415;-54
2022/05/03 07:04:46;;;;;;;4.93;3.17;;;12.60;1.00;;;;;;5060914;28;20204;-54
2022/05/03 07:07:14;;;;;;;5.10;3.50;;;12.60;1.00;;;;;;5071011;28;20209;-54
2022/05/03 07:09:41;;;;;;;4.53;3.63;;;12.70;1.00;;;;;;5069693;28;20235;-54
2022/05/03 07:12:09;;;;;;;5.73;3.30;;;12.70;1.00;;;;;;5071134;28;20233;-53
2022/05/03 07:14:36;;;;;;;5.40;3.40;;;12.90;1.00;;;;;;5067184;28;20207;-54
2022/05/03 07:17:04;;;;;;;6.70;3.87;;;13.10;1.00;;;;;;5067898;28;20192;-54
2022/05/03 07:25:03;;;;;;;4.43;3.57;;;13.80;1.00;;;;;;5067971;28;20296;-54
2022/05/03 07:27:30;;;;;;;5.43;3.60;;;14.30;1.00;;;;;;5061817;28;20242;-54
2022/05/03 07:29:56;;;;;;;5.73;3.83;;;14.60;1.00;;;;;;5062337;28;20244;-55
2022/05/03 07:32:23;;;;;;;5.67;3.80;;;14.40;1.00;;;;;;5067741;28;20599;-54
2022/05/03 07:34:50;;;;;;;5.87;3.80;;;14.40;1.00;;;;;;5058299;28;20194;-54
2022/05/03 07:37:17;;;;;;;5.07;4.07;;;14.40;1.00;;;;;;5068945;28;20304;-54
2022/05/03 07:39:43;;;;;;;5.50;4.53;;;14.70;1.00;;;;;;5070100;28;20236;-54
2022/05/03 07:42:10;;;;;;;4.93;4.00;;;13.80;1.00;;;;;;5062575;28;20321;-54
2022/05/03 07:44:37;;;;;;;5.70;4.00;;;13.80;1.00;;;;;;5064103;28;20198;-57
2022/05/03 07:47:04;;;;;;;11.37;4.37;;;13.90;1.00;;;;;;5058916;28;20274;-54
2022/05/03 07:49:31;;;;;;;8.90;4.80;;;14.40;1.00;;;;;;5066562;28;20299;-52
2022/05/03 07:51:57;;;;;;;5.03;4.30;;;14.20;1.00;;;;;;5067327;28;20236;-54
2022/05/03 07:54:24;;;;;;;5.10;4.10;;;13.90;1.00;;;;;;5064875;28;20244;-55
2022/05/03 07:56:52;;;;;;;4.87;4.27;;;14.00;28.60;;;;;;5048500;28;20201;-55
2022/05/03 07:59:23;;;;;;;4.97;4.10;;;13.90;1.00;;;;;;5040278;28;20206;-54
2022/05/03 08:01:49;;;;;;;8.07;4.53;;;14.50;1.00;;;;;;5066444;28;20197;-54
2022/05/03 08:04:17;;;;;;;8.17;4.70;;;14.60;1.00;;;;;;5064777;28;20230;-54
2022/05/03 08:06:43;;;;;;;5.57;4.47;;;14.40;1.00;;;;;;5069358;28;20217;-54
2022/05/03 08:09:10;;;;;;;5.73;4.40;;;14.60;1.00;;;;;;5058337;28;20337;-54
2022/05/03 08:11:41;;;;;;;6.50;4.20;;;14.80;1.00;;;;;;5067281;28;20605;-54
2022/05/03 08:14:08;;;;;;;6.27;4.83;;;15.30;1.00;;;;;;5067362;28;20235;-52
2022/05/03 08:16:35;;;;;;;6.70;4.50;;;14.60;1.00;;;;;;5067201;28;20271;-53
2022/05/03 08:19:02;;;;;;;6.30;4.80;;;14.90;1.00;;;;;;5060749;28;20206;-53
2022/05/03 08:21:30;;;;;;;5.47;4.60;;;14.90;1.00;;;;;;5056583;28;20619;-53
2022/05/03 08:23:56;;;;;;;5.90;4.60;;;15.40;1.00;;;;;;5067820;28;20205;-53
2022/05/03 08:26:23;;;;;;;6.77;4.63;;;16.00;1.00;;;;;;5069819;28;20256;-54
2022/05/03 08:28:50;;;;;;;6.37;4.50;;;15.60;1.00;;;;;;5062065;28;20639;-53
2022/05/03 08:31:17;;;;;;;7.80;4.23;;;15.60;99.90;;;;;;5066555;28;20340;-54
2022/05/03 08:33:44;;;;;;;5.53;3.83;;;16.10;99.90;;;;;;5066614;28;20786;-56
2022/05/03 08:36:11;;;;;;;6.20;3.80;;;16.50;99.90;;;;;;5068235;28;20604;-53
2022/05/03 08:44:09;;;;;;;6.07;4.67;;;16.70;99.90;;;;;;5063959;28;20203;-55
2022/05/03 08:46:36;;;;;;;10.73;6.57;;;16.60;99.90;;;;;;5060595;28;20672;-54
2022/05/03 08:49:05;;;;;;;7.00;5.17;;;17.00;99.90;;;;;;5057071;28;20732;-54
2022/05/03 08:51:32;;;;;;;5.80;5.00;;;17.60;99.90;;;;;;5061472;28;20655;-54
2022/05/03 08:54:01;;;;;;;7.37;5.00;;;17.70;99.90;;;;;;5060290;28;20294;-54
2022/05/03 08:56:28;;;;;;;6.40;5.13;;;17.00;99.90;;;;;;5066998;28;20194;-54
2022/05/03 08:58:55;;;;;;;7.97;5.13;;;17.60;99.90;;;;;;5063761;28;20671;-54
2022/05/03 09:01:22;;;;;;;7.00;4.93;;;17.60;99.90;;;;;;5061527;28;20209;-54
2022/05/03 09:03:48;;;;;;;8.30;5.73;;;17.30;99.90;;;;;;5063932;28;20651;-54
2022/05/03 09:06:15;;;;;;;8.47;4.97;;;16.80;99.90;;;;;;5064971;28;20199;-54
2022/05/03 09:08:42;;;;;;;7.40;5.77;;;16.70;99.90;;;;;;5066235;28;20217;-54
2022/05/03 09:11:19;;;;;;;6.70;5.30;;;16.90;99.90;;;;;;5062339;28;20195;-54
2022/05/03 09:13:47;;;;;;;7.20;5.10;;;17.40;99.90;;;;;;5063770;28;20227;-54
2022/05/03 09:16:16;;;;;;;7.53;6.07;;;17.90;99.90;;;;;;5062801;28;20199;-54
2022/05/03 09:18:47;;;;;;;6.60;5.10;;;17.80;99.90;;;;;;5062079;28;20203;-54
2022/05/03 09:24:12;;;;;;;7.47;5.73;;;17.90;99.90;;;;;;5068238;28;20249;-54
2022/05/03 09:26:39;;;;;;;7.60;6.10;;;17.90;99.90;;;;;;5068370;28;20617;-53
2022/05/03 09:29:09;;;;;;;7.20;6.20;;;18.10;99.90;;;;;;5061258;28;20213;-58
2022/05/03 09:31:41;;;;;;;6.90;5.40;;;18.20;99.90;;;;;;5071836;28;20245;-53
2022/05/03 09:34:25;;;;;;;8.53;6.73;;;17.90;99.90;;;;;;5067547;28;20789;-55
2022/05/03 09:36:58;;;;;;;8.50;6.23;;;18.40;99.90;;;;;;5067433;28;20672;-55
2022/05/03 09:39:41;;;;;;;7.73;6.37;;;18.20;99.90;;;;;;5069670;28;20203;-54
2022/05/03 09:42:18;;;;;;;9.57;6.80;;;18.00;99.90;;;;;;5065950;28;20601;-54
2022/05/03 09:44:55;;;;;;;7.50;6.33;;;18.40;99.90;;;;;;5066778;28;20199;-54
2022/05/03 09:47:25;;;;;;;8.80;6.53;;;17.70;99.90;;;;;;5069422;28;20249;-54
2022/05/03 09:49:53;;;;;;;11.23;6.77;;;17.40;99.90;;;;;;5059593;28;20210;-54
2022/05/03 09:52:29;;;;;;;7.17;6.03;;;17.80;99.90;;;;;;5065713;28;20720;-54
2022/05/03 09:55:05;;;;;;;10.63;6.23;;;17.90;99.90;;;;;;5066301;28;20187;-54
2022/05/03 09:57:37;;;;;;;8.80;6.93;;;17.90;99.90;;;;;;5068689;28;20197;-54
2022/05/03 10:00:06;;;;;;;7.33;6.53;;;18.40;99.90;;;;;;5067685;28;20306;-54
2022/05/03 10:02:33;;;;;;;8.77;6.80;;;18.10;99.90;;;;;;5069162;28;20221;-56
2022/05/03 10:05:00;;;;;;;8.93;6.67;;;18.20;99.90;;;;;;5066595;28;20203;-53
2022/05/03 10:07:29;;;;;;;11.63;5.90;;;18.00;99.90;;;;;;5056759;28;20345;-54
2022/05/03 10:09:56;;;;;;;13.13;6.67;;;18.40;99.90;;;;;;5066359;28;20213;-54
2022/05/03 10:12:22;;;;;;;10.07;7.10;;;18.10;99.90;;;;;;5066055;28;20197;-54
2022/05/03 10:14:49;;;;;;;10.97;7.20;;;17.90;1.00;;;;;;5069020;28;20196;-54
2022/05/03 10:20:38;;;;;;;8.10;5.93;;;17.70;1.00;;;;;;5064040;28;20636;-54
2022/05/03 10:23:24;;;;;;;9.27;5.90;;;18.30;1.00;;;;;;5067594;28;20242;-54
2022/05/03 10:25:51;;;;;;;7.50;6.03;;;18.00;1.00;;;;;;5067381;28;20230;-55
2022/05/03 10:28:18;;;;;;;8.00;5.87;;;17.90;1.00;;;;;;5068307;28;20307;-54
2022/05/03 10:31:06;;;;;;;9.03;6.37;;;17.10;1.00;;;;;;5068490;28;20630;-55
2022/05/03 10:33:35;;;;;;;7.57;6.00;;;17.10;1.00;;;;;;5065035;28;20596;-55
2022/05/03 10:36:23;;;;;;;8.33;6.80;;;17.10;1.00;;;;;;5059761;28;20681;-54
2022/05/03 10:38:50;;;;;;;8.73;6.60;;;17.20;1.00;;;;;;5060174;28;20234;-55
2022/05/03 10:41:26;;;;;;;9.27;6.77;;;16.90;1.00;;;;;;5068030;28;20336;-55
2022/05/03 10:43:53;;;;;;;10.27;7.37;;;16.50;1.00;;;;;;5067696;28;20709;-54
2022/05/03 10:46:22;;;;;;;9.17;6.73;;;16.40;1.00;;;;;;5068412;28;20212;-54
2022/05/03 10:49:13;;;;;;;8.27;7.27;;;16.70;1.00;;;;;;5061349;28;20214;-55
2022/05/03 10:51:42;;;;;;;7.80;6.10;;;17.30;1.00;;;;;;5063159;28;20266;-54
2022/05/03 10:54:09;;;;;;;8.70;6.27;;;18.00;1.00;;;;;;5065216;28;20238;-54
2022/05/03 10:57:07;;;;;;;7.17;6.07;;;18.30;1.00;;;;;;5067310;28;20279;-54
2022/05/03 10:59:47;;;;;;;9.10;7.00;;;18.70;1.00;;;;;;5064759;28;20658;-54
2022/05/03 11:02:14;;;;;;;11.03;7.13;;;18.50;1.00;;;;;;5064996;28;20245;-54
2022/05/03 11:05:16;;;;;;;10.20;6.60;;;18.50;99.90;;;;;;5057824;28;20296;-54
2022/05/03 11:08:15;;;;;;;7.47;6.67;;;18.20;1.00;;;;;;5061622;28;20410;-54
2022/05/03 11:10:43;;;;;;;9.50;6.93;;;18.00;1.00;;;;;;5057080;28;20243;-54
2022/05/03 11:13:39;;;;;;;10.13;6.90;;;17.70;1.00;;;;;;5067411;28;20207;-54
2022/05/03 11:16:25;;;;;;;10.23;6.43;;;18.00;1.00;;;;;;5064123;28;20284;-54
2022/05/03 11:18:53;;;;;;;7.63;6.33;;;17.70;1.00;;;;;;5064801;28;20231;-54
2022/05/03 11:21:20;;;;;;;6.80;6.10;;;17.80;1.00;;;;;;5043265;28;20196;-53
2022/05/03 11:23:55;;;;;;;10.40;6.47;;;17.80;1.00;;;;;;5068139;28;20235;-54
2022/05/03 11:26:24;;;;;;;6.40;5.50;;;17.80;1.00;;;;;;5068029;28;20202;-54
2022/05/03 11:28:52;;;;;;;9.67;6.80;;;17.40;1.00;;;;;;5063209;28;20256;-54
2022/05/03 11:31:25;;;;;;;10.13;6.93;;;17.50;1.00;;;;;;5046391;28;20535;-54
2022/05/03 11:33:56;;;;;;;8.67;6.87;;;17.30;1.00;;;;;;5058671;28;20231;-55
2022/05/03 11:36:23;;;;;;;9.30;7.13;;;17.30;1.00;;;;;;5061738;28;20201;-54
2022/05/03 11:38:51;;;;;;;8.23;6.33;;;17.90;1.00;;;;;;5060444;28;20264;-54
2022/05/03 11:41:23;;;;;;;7.63;5.83;;;18.20;1.00;;;;;;5066966;28;20632;-54
2022/05/03 11:43:51;;;;;;;6.30;4.00;;;18.00;1.00;;;;;;5064512;28;20269;-54
2022/05/03 11:46:19;;;;;;;3.23;2.80;;;18.10;99.90;;;;;;5066479;28;20261;-54
2022/05/03 11:48:52;;;;;;;8.83;4.47;;;18.50;99.90;;;;;;5063347;28;20197;-54
2022/05/03 11:57:11;;;;;;;6.00;5.27;;;18.10;99.90;;;;;;5063595;28;20188;-54
2022/05/03 11:59:39;;;;;;;8.10;6.90;;;18.40;99.90;;;;;;5065787;28;20298;-54
2022/05/03 12:02:29;;;;;;;10.23;8.23;;;17.90;1.00;;;;;;5041083;28;20257;-55
2022/05/03 12:05:12;;;;;;;8.80;6.93;;;18.00;1.00;;;;;;5057711;28;20280;-54
2022/05/03 12:07:44;;;;;;;10.87;7.20;;;17.50;1.00;;;;;;5057158;28;20205;-55
2022/05/03 12:10:20;;;;;;;8.77;7.07;;;17.80;1.00;;;;;;5047385;28;20290;-55
2022/05/03 12:13:02;;;;;;;8.60;6.60;;;17.60;1.00;;;;;;5066644;28;20197;-53
2022/05/03 12:15:29;;;;;;;8.70;5.97;;;17.90;1.00;;;;;;5067135;28;20276;-54
2022/05/03 12:18:02;;;;;;;8.17;6.40;;;18.00;1.00;;;;;;5064347;28;20202;-55
2022/05/03 12:20:43;;;;;;;10.00;7.77;;;18.20;1.00;;;;;;5064755;28;20282;-52
2022/05/03 12:23:18;;;;;;;10.27;8.40;;;18.00;1.00;;;;;;5062462;28;20592;-56
2022/05/03 12:25:48;;;;;;;9.80;8.23;;;18.00;1.00;;;;;;5065686;28;20559;-54
2022/05/03 12:28:16;;;;;;;10.47;7.50;;;17.80;1.00;;;;;;5064231;28;20201;-53
2022/05/03 12:30:44;;;;;;;12.53;9.60;;;18.60;1.00;;;;;;5063358;28;20265;-54
2022/05/03 12:33:15;;;;;;;14.70;9.67;;;18.80;1.00;;;;;;5062940;28;20741;-54
2022/05/03 12:35:43;;;;;;;10.67;7.83;;;19.50;1.00;;;;;;5062893;28;20226;-54
2022/05/03 12:38:15;;;;;;;10.67;8.27;;;19.10;99.90;;;;;;5055742;28;20205;-53
2022/05/03 12:40:47;;;;;;;12.80;9.37;;;18.90;99.90;;;;;;5054637;28;20238;-54
2022/05/03 12:43:16;;;;;;;9.83;8.30;;;19.00;99.90;;;;;;5061631;28;20224;-54
2022/05/03 12:46:01;;;;;;;8.47;7.40;;;19.10;99.90;;;;;;5066245;28;20284;-55
2022/05/03 12:48:31;;;;;;;9.30;6.50;;;19.50;99.90;;;;;;5063863;28;20204;-54
2022/05/03 12:50:59;;;;;;;8.17;5.80;;;19.50;99.90;;;;;;5065567;28;20626;-54
2022/05/03 12:53:28;;;;;;;7.67;6.33;;;20.10;99.90;;;;;;5047265;28;20351;-54
2022/05/03 12:55:56;;;;;;;8.83;7.53;;;20.60;93.00;;;;;;5068673;28;20233;-54
2022/05/03 12:58:25;;;;;;;7.97;6.53;;;20.10;99.90;;;;;;5068134;28;20289;-56
2022/05/03 13:00:55;;;;;;;9.23;6.60;;;20.20;99.90;;;;;;5070559;28;20255;-53
2022/05/03 13:03:22;;;;;;;6.97;6.03;;;20.80;99.90;;;;;;5067373;28;20249;-55
2022/05/03 13:05:50;;;;;;;9.60;7.77;;;20.40;84.40;;;;;;5061888;28;20202;-54
2022/05/03 13:08:17;;;;;;;9.93;7.20;;;19.70;86.10;;;;;;5068575;28;20198;-53
2022/05/03 13:10:45;;;;;;;7.63;6.07;;;19.60;99.90;;;;;;5049637;28;20252;-54
2022/05/03 13:13:12;;;;;;;5.23;4.53;;;19.10;99.90;;;;;;5050509;28;20198;-54
2022/05/03 13:15:39;;;;;;;5.77;4.70;;;18.80;99.90;;;;;;5069074;28;20240;-54
2022/05/03 13:18:06;;;;;;;4.70;4.27;;;18.50;99.90;;;;;;5068120;28;20568;-54
2022/05/03 13:20:33;;;;;;;14.63;11.27;;;18.80;99.90;;;;;;5049135;28;20723;-54
2022/05/03 13:23:01;;;;;;;16.93;13.83;;;18.30;1.00;;;;;;5067528;28;20228;-54
2022/05/03 13:25:28;;;;;;;21.60;15.07;;;18.30;1.00;;;;;;5066010;28;20204;-54
2022/05/03 13:27:56;;;;;;;20.70;15.60;;;17.90;99.90;;;;;;5069796;28;20688;-54
2022/05/03 13:30:24;;;;;;;22.47;17.03;;;18.00;99.90;;;;;;5059587;28;20218;-54
2022/05/03 13:32:52;;;;;;;24.00;16.93;;;17.90;1.00;;;;;;5069902;28;20193;-54
2022/05/03 13:40:56;;;;;;;24.13;17.03;;;16.90;1.00;;;;;;5068291;28;20559;-56
2022/05/03 13:43:23;;;;;;;24.47;15.67;;;16.60;1.00;;;;;;5068635;28;20286;-54
2022/05/03 13:45:50;;;;;;;25.70;17.00;;;16.60;1.00;;;;;;5067670;28;20728;-54
2022/05/03 13:48:26;;;;;;;22.70;15.93;;;16.50;1.00;;;;;;5068910;28;20678;-53
2022/05/03 13:50:53;;;;;;;21.53;14.97;;;16.30;99.90;;;;;;5065113;28;20216;-54
2022/05/03 13:53:19;;;;;;;22.27;15.73;;;16.00;99.90;;;;;;5069684;28;20245;-56
2022/05/03 13:55:47;;;;;;;22.47;14.30;;;16.00;99.90;;;;;;5062215;28;20249;-54
2022/05/03 13:58:13;;;;;;;21.37;15.07;;;16.00;99.90;;;;;;5068004;28;20243;-54